Time;durP1;ratioP1;P1;durP2;ratioP2;P2;SDS_P1;SDS_P2;PMS_P1;PMS_P2;Temp;Humidity;BMP_temperature;BMP_pressure;BME280_temperature;BME280_humidity;BME280_pressure;Samples;Min_cycle;Max_cycle;Signal;HPM_P1;HPM_P2
2023/07/14 00:00:09;;;;;;;;;;;;;;;21.30;93.92;95229.44;5094918;28;1044;-54
2023/07/14 00:02:35;;;;;;;;;;;;;;;21.19;94.89;95222.88;5094713;28;1055;-54
2023/07/14 00:05:02;;;;;;;;;;;;;;;21.02;95.82;95227.25;5094780;28;977;-54
2023/07/14 00:07:28;;;;;;;;;;;;;;;20.85;96.47;95224.28;5094568;28;964;-54
2023/07/14 00:09:55;;;;;;;;;;;;;;;20.91;96.75;95225.25;5094601;28;1057;-55
2023/07/14 00:12:21;;;;;;;;;;;;;;;21.04;95.76;95230.56;5094584;28;1910;-54
2023/07/14 00:27:21;;;;;;;;;;;;;;;20.85;95.06;95213.41;5131871;27;1483;-54
2023/07/14 00:29:47;;;;;;;;;;;;;;;20.76;96.48;95212.84;5131768;27;1003;-54
2023/07/14 00:32:17;;;;;;;;;;;;;;;20.67;95.93;95217.72;5131552;27;1047;-54
2023/07/14 00:34:43;;;;;;;;;;;;;;;20.81;95.54;95221.16;5131339;27;2000;-54
2023/07/14 00:37:10;;;;;;;;;;;;;;;20.71;96.06;95220.00;5131688;28;1019;-54
2023/07/14 00:39:36;;;;;;;;;;;;;;;20.61;96.70;95220.50;5131614;27;1066;-54
2023/07/14 00:42:03;;;;;;;;;;;;;;;20.70;96.32;95224.63;5131474;27;1051;-54
2023/07/14 00:44:30;;;;;;;;;;;;;;;20.91;94.99;95215.22;5131374;27;1024;-54
2023/07/14 00:46:56;;;;;;;;;;;;;;;20.92;94.71;95222.31;5131274;28;1103;-54
2023/07/14 00:49:22;;;;;;;;;;;;;;;20.97;93.86;95224.34;5131311;27;1087;-53
2023/07/14 00:51:48;;;;;;;;;;;;;;;20.88;94.87;95234.69;5130901;28;1330;-54
2023/07/14 00:54:25;;;;;;;;;;;;;;;20.92;94.42;95233.16;5131463;27;1057;-54
2023/07/14 00:56:52;;;;;;;;;;;;;;;20.79;94.23;95230.56;5131270;27;1985;-54
2023/07/14 00:59:19;;;;;;;;;;;;;;;20.39;96.31;95231.69;5131173;27;1123;-54
2023/07/14 01:02:04;;;;;;;;;;;;;;;20.25;98.03;95227.44;5131369;27;1039;-54
2023/07/14 01:04:30;;;;;;;;;;;;;;;20.23;98.24;95227.66;5131094;28;913;-54
2023/07/14 01:06:56;;;;;;;;;;;;;;;20.31;97.61;95247.44;5131105;27;1839;-54
2023/07/14 01:09:22;;;;;;;;;;;;;;;20.42;96.83;95269.28;5130987;28;1056;-54
2023/07/14 01:11:51;;;;;;;;;;;;;;;20.59;96.59;95266.88;5130948;27;968;-54
2023/07/14 01:14:25;;;;;;;;;;;;;;;20.83;94.33;95257.09;5131197;27;1038;-54
2023/07/14 01:16:53;;;;;;;;;;;;;;;20.92;92.92;95254.91;5130969;27;1984;-54
2023/07/14 01:19:22;;;;;;;;;;;;;;;20.90;92.68;95264.34;5130997;27;1011;-54
2023/07/14 01:21:51;;;;;;;;;;;;;;;20.56;95.22;95255.59;5130694;28;1341;-54
2023/07/14 01:24:23;;;;;;;;;;;;;;;20.31;95.76;95248.28;5130719;27;1537;-54
2023/07/14 01:26:56;;;;;;;;;;;;;;;20.07;97.72;95245.31;5105077;28;1298;-54
2023/07/14 01:29:22;;;;;;;;;;;;;;;20.13;98.26;95246.31;5096627;28;1048;-53
2023/07/14 01:31:48;;;;;;;;;;;;;;;20.18;97.41;95259.22;5096545;28;1115;-54
2023/07/14 01:34:15;;;;;;;;;;;;;;;20.26;97.29;95267.09;5096563;28;1045;-54
2023/07/14 01:36:42;;;;;;;;;;;;;;;20.34;96.73;95269.56;5096410;28;1980;-54
2023/07/14 01:39:09;;;;;;;;;;;;;;;20.29;97.13;95274.81;5096367;28;1046;-54
2023/07/14 01:41:36;;;;;;;;;;;;;;;20.25;97.24;95277.13;5096587;28;1063;-54
2023/07/14 01:44:03;;;;;;;;;;;;;;;20.28;96.92;95284.03;5096449;28;1151;-54
2023/07/14 01:46:30;;;;;;;;;;;;;;;20.51;95.72;95298.88;5096397;28;973;-54
2023/07/14 01:48:57;;;;;;;;;;;;;;;20.30;95.73;95300.91;5096179;28;1040;-54
2023/07/14 01:51:24;;;;;;;;;;;;;;;20.25;96.28;95301.56;5096184;28;1051;-53
2023/07/14 01:53:53;;;;;;;;;;;;;;;20.44;95.40;95288.09;5096133;28;1277;-54
2023/07/14 01:56:20;;;;;;;;;;;;;;;20.56;94.25;95288.19;5096133;28;2005;-54
2023/07/14 01:59:00;;;;;;;;;;;;;;;20.33;95.83;95284.19;5096162;28;933;-54
2023/07/14 02:01:28;;;;;;;;;;;;;;;20.40;95.60;95281.44;5096094;28;976;-54
2023/07/14 02:03:55;;;;;;;;;;;;;;;20.36;96.19;95294.59;5095922;28;1052;-54
2023/07/14 02:06:22;;;;;;;;;;;;;;;20.24;97.57;95297.19;5095880;28;1356;-53
2023/07/14 02:08:48;;;;;;;;;;;;;;;20.25;97.11;95287.16;5096054;28;1055;-54
2023/07/14 02:11:19;;;;;;;;;;;;;;;20.19;97.95;95290.75;5095778;28;1099;-54
2023/07/14 02:13:46;;;;;;;;;;;;;;;20.40;96.13;95289.56;5095796;28;968;-54
2023/07/14 02:16:14;;;;;;;;;;;;;;;20.31;96.71;95291.72;5095613;28;1910;-54
2023/07/14 02:18:41;;;;;;;;;;;;;;;20.20;97.66;95304.09;5095572;28;1044;-54
2023/07/14 02:21:08;;;;;;;;;;;;;;;20.39;96.13;95294.16;5095582;28;1107;-54
2023/07/14 02:23:37;;;;;;;;;;;;;;;20.34;96.97;95304.03;5095681;28;1032;-54
2023/07/14 02:26:03;;;;;;;;;;;;;;;20.30;96.71;95306.34;5112656;28;1534;-54
2023/07/14 02:28:29;;;;;;;;;;;;;;;20.29;97.15;95313.66;5115901;28;956;-54
2023/07/14 02:30:59;;;;;;;;;;;;;;;20.18;97.80;95316.22;5115819;28;971;-54
2023/07/14 02:33:29;;;;;;;;;;;;;;;19.96;98.57;95318.44;5115702;27;1091;-54
2023/07/14 02:36:05;;;;;;;;;;;;;;;20.09;97.99;95321.91;5115782;28;1914;-54
2023/07/14 02:38:31;;;;;;;;;;;;;;;20.13;97.89;95322.31;5114846;27;992;-54
2023/07/14 02:41:04;;;;;;;;;;;;;;;20.24;97.14;95328.91;5115650;28;988;-54
2023/07/14 02:43:30;;;;;;;;;;;;;;;20.15;97.36;95336.50;5115520;28;961;-54
2023/07/14 02:45:57;;;;;;;;;;;;;;;19.95;97.85;95343.91;5115423;28;1038;-54
2023/07/14 02:48:29;;;;;;;;;;;;;;;19.95;98.29;95338.47;5115456;28;1036;-54
2023/07/14 02:50:55;;;;;;;;;;;;;;;20.09;97.46;95357.19;5115347;28;1052;-54
2023/07/14 02:53:21;;;;;;;;;;;;;;;20.15;97.21;95354.69;5115528;28;1024;-54
2023/07/14 02:55:47;;;;;;;;;;;;;;;20.16;97.43;95354.44;5115274;28;1906;-54
2023/07/14 02:58:13;;;;;;;;;;;;;;;19.90;98.10;95358.13;5115220;28;915;-54
2023/07/14 03:00:39;;;;;;;;;;;;;;;20.05;97.55;95369.53;5115145;28;1887;-53
2023/07/14 03:03:05;;;;;;;;;;;;;;;20.02;97.36;95366.41;5115368;28;1024;-53
2023/07/14 03:05:31;;;;;;;;;;;;;;;20.11;96.71;95347.97;5115340;28;1040;-53
2023/07/14 03:07:57;;;;;;;;;;;;;;;20.35;95.21;95352.66;5115001;28;1096;-53
2023/07/14 03:10:23;;;;;;;;;;;;;;;20.39;95.12;95358.50;5115020;28;1047;-53
2023/07/14 03:12:49;;;;;;;;;;;;;;;20.20;96.62;95363.81;5115051;28;972;-54
2023/07/14 03:15:15;;;;;;;;;;;;;;;20.01;98.12;95370.97;5114866;28;1914;-54
2023/07/14 03:17:41;;;;;;;;;;;;;;;20.05;99.19;95382.25;5115093;28;992;-53
2023/07/14 03:20:10;;;;;;;;;;;;;;;19.97;98.79;95380.59;5115017;28;1055;-53
2023/07/14 03:22:37;;;;;;;;;;;;;;;19.89;98.73;95391.72;5114880;28;984;-54
2023/07/14 03:25:03;;;;;;;;;;;;;;;20.03;98.31;95408.78;5114578;28;1534;-54
2023/07/14 03:27:29;;;;;;;;;;;;;;;20.22;97.88;95412.47;5114735;28;1901;-53
2023/07/14 03:29:55;;;;;;;;;;;;;;;20.41;96.75;95399.84;5114585;28;1051;-53
2023/07/14 03:32:21;;;;;;;;;;;;;;;20.18;96.58;95403.09;5114818;28;972;-53
2023/07/14 03:34:47;;;;;;;;;;;;;;;19.87;98.67;95391.91;5114636;28;2004;-53
2023/07/14 03:37:13;;;;;;;;;;;;;;;19.99;98.63;95370.38;5114646;28;1295;-53
2023/07/14 03:39:39;;;;;;;;;;;;;;;20.19;98.54;95359.44;5114519;28;999;-54
2023/07/14 03:42:05;;;;;;;;;;;;;;;20.17;98.96;95339.00;5114449;28;1027;-54
2023/07/14 03:44:32;;;;;;;;;;;;;;;20.26;98.80;95335.81;5114396;28;1019;-54
2023/07/14 03:46:58;;;;;;;;;;;;;;;20.49;98.09;95334.44;5114325;28;1875;-54
2023/07/14 03:49:25;;;;;;;;;;;;;;;20.40;99.72;95336.56;5114325;28;1096;-54
2023/07/14 03:51:52;;;;;;;;;;;;;;;20.54;98.03;95344.63;5114441;28;1133;-54
2023/07/14 03:54:18;;;;;;;;;;;;;;;20.53;99.75;95362.00;5114244;28;1096;-54
2023/07/14 03:56:44;;;;;;;;;;;;;;;20.73;98.02;95378.19;5114015;28;1945;-54
2023/07/14 03:59:10;;;;;;;;;;;;;;;20.88;97.57;95373.25;5114064;28;1107;-55
2023/07/14 04:01:37;;;;;;;;;;;;;;;21.05;96.40;95381.72;5114432;28;972;-54
2023/07/14 04:04:03;;;;;;;;;;;;;;;21.10;97.03;95386.50;5114349;28;1198;-54
2023/07/14 04:06:29;;;;;;;;;;;;;;;21.17;95.77;95407.16;5114285;28;1027;-54
2023/07/14 04:08:57;;;;;;;;;;;;;;;21.22;95.86;95404.56;5114275;28;979;-54
2023/07/14 04:11:23;;;;;;;;;;;;;;;21.08;97.22;95400.31;5113975;28;1048;-55
2023/07/14 04:13:49;;;;;;;;;;;;;;;21.21;96.11;95386.63;5113990;28;1056;-54
2023/07/14 04:16:15;;;;;;;;;;;;;;;21.43;94.94;95389.75;5113887;28;1906;-54
2023/07/14 04:18:42;;;;;;;;;;;;;;;21.65;93.30;95381.22;5114135;28;1043;-54
2023/07/14 04:21:10;;;;;;;;;;;;;;;21.68;94.61;95390.81;5114049;28;972;-54
2023/07/14 04:23:36;;;;;;;;;;;;;;;21.55;97.40;95403.50;5113959;28;1015;-54
2023/07/14 04:26:03;;;;;;;;;;;;;;;21.73;95.14;95405.41;5113664;28;1350;-54
2023/07/14 04:28:29;;;;;;;;;;;;;;;21.93;92.70;95399.78;5113836;28;956;-54
2023/07/14 04:30:56;;;;;;;;;;;;;;;22.19;91.08;95398.63;5114221;28;997;-54
2023/07/14 04:33:22;;;;;;;;;;;;;;;22.46;89.78;95413.84;5114048;28;1039;-54
2023/07/14 04:35:49;;;;;;;;;;;;;;;22.48;89.60;95412.56;5113822;28;1898;-54
2023/07/14 04:38:15;;;;;;;;;;;;;;;22.37;93.01;95421.50;5113871;28;1056;-54
2023/07/14 04:40:41;;;;;;;;;;;;;;;22.52;92.22;95426.53;5113717;28;1096;-54
2023/07/14 04:43:07;;;;;;;;;;;;;;;22.64;90.58;95430.16;5113738;28;1048;-54
2023/07/14 04:45:40;;;;;;;;;;;;;;;22.66;89.40;95422.59;5113922;28;1052;-54
2023/07/14 04:48:07;;;;;;;;;;;;;;;22.89;88.95;95421.03;5114114;28;1055;-54
2023/07/14 04:50:33;;;;;;;;;;;;;;;23.14;86.69;95424.44;5113738;28;973;-54
2023/07/14 04:52:59;;;;;;;;;;;;;;;23.26;84.62;95415.44;5113629;28;1036;-54
2023/07/14 04:55:28;;;;;;;;;;;;;;;23.50;84.42;95419.88;5113479;28;1913;-54
2023/07/14 04:57:54;;;;;;;;;;;;;;;23.70;83.09;95424.19;5113485;28;1063;-54
2023/07/14 05:00:21;;;;;;;;;;;;;;;23.76;81.80;95424.06;5113795;28;1052;-54
2023/07/14 05:02:47;;;;;;;;;;;;;;;23.85;80.64;95423.75;5115944;28;973;-54
2023/07/14 05:05:20;;;;;;;;;;;;;;;23.88;80.08;95420.53;5116384;28;1000;-54
2023/07/14 05:07:50;;;;;;;;;;;;;;;24.01;79.02;95416.72;5117537;28;971;-54
2023/07/14 05:10:16;;;;;;;;;;;;;;;24.10;78.04;95423.47;5117311;28;1041;-54
2023/07/14 05:12:42;;;;;;;;;;;;;;;24.15;80.23;95418.97;5117211;28;1087;-55
2023/07/14 05:15:10;;;;;;;;;;;;;;;24.19;79.42;95419.31;5116185;28;1898;-54
2023/07/14 05:17:37;;;;;;;;;;;;;;;24.28;77.48;95425.22;5117316;28;996;-53
2023/07/14 05:20:06;;;;;;;;;;;;;;;24.23;78.90;95425.13;5117163;28;1990;-53
2023/07/14 05:22:32;;;;;;;;;;;;;;;24.25;78.79;95423.00;5117152;28;976;-54
2023/07/14 05:24:58;;;;;;;;;;;;;;;24.25;81.95;95423.81;5116827;28;1539;-55
2023/07/14 05:27:24;;;;;;;;;;;;;;;24.20;80.99;95437.34;5117346;28;1043;-54
2023/07/14 05:29:53;;;;;;;;;;;;;;;24.25;80.46;95442.94;5117131;28;964;-54
2023/07/14 05:32:21;;;;;;;;;;;;;;;24.24;82.24;95443.16;5117057;28;1040;-54
2023/07/14 05:34:48;;;;;;;;;;;;;;;24.15;81.09;95443.53;5116783;28;1989;-54
2023/07/14 05:37:15;;;;;;;;;;;;;;;24.40;79.27;95439.69;5116883;28;1040;-54
2023/07/14 05:39:42;;;;;;;;;;;;;;;24.57;78.75;95442.56;5116794;28;1128;-54
2023/07/14 05:42:08;;;;;;;;;;;;;;;24.68;81.27;95447.16;5116711;28;1053;-55
2023/07/14 05:44:34;;;;;;;;;;;;;;;24.79;79.91;95450.06;5116822;28;1008;-55
2023/07/14 05:47:00;;;;;;;;;;;;;;;24.91;82.38;95453.63;5116737;28;992;-55
2023/07/14 05:49:26;;;;;;;;;;;;;;;25.03;82.53;95450.81;5116749;28;969;-54
2023/07/14 05:51:52;;;;;;;;;;;;;;;24.99;82.08;95442.28;5116591;28;1008;-55
2023/07/14 05:54:19;;;;;;;;;;;;;;;24.83;80.64;95446.59;5116809;28;1027;-55
2023/07/14 05:56:46;;;;;;;;;;;;;;;24.75;83.17;95442.34;5116393;28;1910;-55
2023/07/14 05:59:12;;;;;;;;;;;;;;;24.88;83.38;95446.72;5116441;28;1039;-55
2023/07/14 06:01:38;;;;;;;;;;;;;;;25.02;82.21;95444.50;5116326;28;1052;-55
2023/07/14 06:04:07;;;;;;;;;;;;;;;25.13;80.76;95445.53;5116362;28;1040;-55
2023/07/14 06:06:33;;;;;;;;;;;;;;;25.21;80.14;95445.16;5116205;28;1062;-55
2023/07/14 06:09:00;;;;;;;;;;;;;;;25.39;79.75;95446.84;5116183;28;1063;-55
2023/07/14 06:11:26;;;;;;;;;;;;;;;25.46;76.29;95450.25;5116429;28;1231;-55
2023/07/14 06:13:52;;;;;;;;;;;;;;;25.68;78.62;95458.56;5116117;28;1048;-55
2023/07/14 06:16:21;;;;;;;;;;;;;;;25.64;79.82;95456.56;5114992;28;1913;-55
2023/07/14 06:18:48;;;;;;;;;;;;;;;25.92;76.85;95452.13;5116108;28;1020;-55
2023/07/14 06:21:14;;;;;;;;;;;;;;;26.09;75.16;95456.50;5115981;28;957;-53
2023/07/14 06:23:40;;;;;;;;;;;;;;;26.15;76.44;95451.91;5114949;28;1597;-56
2023/07/14 06:26:06;;;;;;;;;;;;;;;26.04;76.90;95450.09;5115591;28;1525;-56
2023/07/14 06:28:33;;;;;;;;;;;;;;;26.11;76.46;95442.53;5116004;28;917;-54
2023/07/14 06:31:01;;;;;;;;;;;;;;;26.14;76.19;95438.47;5115840;28;961;-54
2023/07/14 06:33:27;;;;;;;;;;;;;;;26.44;72.61;95433.38;5115794;28;1020;-54
2023/07/14 06:35:55;;;;;;;;;;;;;;;26.71;73.66;95431.84;5115562;28;1909;-54
2023/07/14 06:38:22;;;;;;;;;;;;;;;27.02;73.24;95435.78;5115882;28;1052;-55
2023/07/14 06:40:55;;;;;;;;;;;;;;;27.17;74.32;95430.44;5115560;28;1065;-55
2023/07/14 06:43:21;;;;;;;;;;;;;;;27.02;73.03;95433.84;5115628;28;1039;-55
2023/07/14 06:45:48;;;;;;;;;;;;;;;27.03;74.57;95432.78;5115563;28;1141;-54
2023/07/14 06:48:14;;;;;;;;;;;;;;;27.25;74.40;95430.00;5115537;28;1457;-53
2023/07/14 06:50:40;;;;;;;;;;;;;;;27.27;73.08;95435.22;5115252;28;1115;-55
2023/07/14 06:53:06;;;;;;;;;;;;;;;27.39;73.15;95433.13;5115339;28;1053;-54
2023/07/14 06:55:32;;;;;;;;;;;;;;;27.46;72.52;95427.44;5115194;28;1914;-55
2023/07/14 06:57:58;;;;;;;;;;;;;;;27.43;73.25;95438.94;5115252;27;1048;-55
2023/07/14 07:00:25;;;;;;;;;;;;;;;27.62;70.08;95418.25;5115153;28;1127;-55
2023/07/14 07:02:51;;;;;;;;;;;;;;;27.93;69.51;95423.19;5115220;28;1028;-54
2023/07/14 07:05:17;;;;;;;;;;;;;;;28.18;68.20;95422.50;5115005;28;1099;-54
2023/07/14 07:07:43;;;;;;;;;;;;;;;28.42;68.01;95422.94;5115207;28;981;-54
2023/07/14 07:10:09;;;;;;;;;;;;;;;28.68;68.23;95431.31;5115193;28;1134;-54
2023/07/14 07:12:36;;;;;;;;;;;;;;;28.65;68.82;95426.34;5114942;28;1596;-54
2023/07/14 07:15:02;;;;;;;;;;;;;;;28.57;70.16;95434.03;5114965;28;1917;-56
2023/07/14 07:17:28;;;;;;;;;;;;;;;28.60;70.51;95430.72;5113750;28;996;-55
2023/07/14 07:19:54;;;;;;;;;;;;;;;28.66;68.86;95431.56;5114761;28;1035;-59
2023/07/14 07:22:21;;;;;;;;;;;;;;;28.75;68.95;95438.22;5115021;28;1051;-55
2023/07/14 07:24:47;;;;;;;;;;;;;;;28.61;68.71;95431.56;5114322;28;1536;-56
2023/07/14 07:27:13;;;;;;;;;;;;;;;28.66;71.26;95434.31;5114568;28;1076;-58
2023/07/14 07:29:42;;;;;;;;;;;;;;;28.97;68.69;95429.78;5114780;28;1064;-55
2023/07/14 07:32:08;;;;;;;;;;;;;;;29.29;69.20;95441.69;5114723;28;1051;-56
2023/07/14 07:34:34;;;;;;;;;;;;;;;29.51;66.63;95427.69;5114496;28;1033;-56
2023/07/14 07:37:00;;;;;;;;;;;;;;;29.66;66.74;95430.44;5114713;28;1977;-56
2023/07/14 07:39:26;;;;;;;;;;;;;;;29.85;66.88;95428.00;5114457;28;1096;-56
2023/07/14 07:41:54;;;;;;;;;;;;;;;29.92;68.45;95422.22;5113381;28;997;-56
2023/07/14 07:44:19;;;;;;;;;;;;;;;30.02;66.86;95424.94;5114614;28;1063;-56
2023/07/14 07:46:46;;;;;;;;;;;;;;;30.05;65.07;95423.56;5114438;28;1016;-56
2023/07/14 07:49:12;;;;;;;;;;;;;;;30.06;64.86;95420.53;5114358;28;1055;-56
2023/07/14 07:51:38;;;;;;;;;;;;;;;30.20;62.19;95414.44;5114581;28;1044;-56
2023/07/14 07:54:04;;;;;;;;;;;;;;;30.41;58.77;95415.25;5114489;28;1060;-56
2023/07/14 07:56:30;;;;;;;;;;;;;;;30.38;58.52;95424.09;5114219;28;1906;-56
2023/07/14 07:58:56;;;;;;;;;;;;;;;30.47;59.06;95420.47;5114285;28;1051;-56
2023/07/14 08:01:24;;;;;;;;;;;;;;;30.44;59.54;95418.28;5114151;28;1108;-56
2023/07/14 08:03:51;;;;;;;;;;;;;;;30.44;59.21;95415.50;5114070;28;953;-56
2023/07/14 08:06:18;;;;;;;;;;;;;;;30.55;57.08;95417.13;5114379;28;1047;-56
2023/07/14 08:08:45;;;;;;;;;;;;;;;30.73;54.80;95412.09;5114076;28;1044;-56
2023/07/14 08:11:12;;;;;;;;;;;;;;;30.73;58.75;95409.31;5114266;28;1259;-56
2023/07/14 08:13:38;;;;;;;;;;;;;;;30.85;57.36;95407.09;5114069;28;1107;-56
2023/07/14 08:16:05;;;;;;;;;;;;;;;30.87;57.23;95404.03;5114019;28;1905;-56
2023/07/14 08:18:31;;;;;;;;;;;;;;;30.94;56.35;95407.31;5114050;28;968;-56
2023/07/14 08:20:58;;;;;;;;;;;;;;;31.02;56.83;95401.22;5114183;28;1031;-56
2023/07/14 08:23:25;;;;;;;;;;;;;;;31.00;56.82;95403.44;5114121;28;941;-56
2023/07/14 08:25:56;;;;;;;;;;;;;;;31.03;54.39;95408.38;5113738;28;1643;-57
2023/07/14 08:28:22;;;;;;;;;;;;;;;31.22;54.93;95402.22;5113991;28;977;-57
2023/07/14 08:30:49;;;;;;;;;;;;;;;31.35;53.79;95409.84;5113841;28;1045;-57
2023/07/14 08:33:19;;;;;;;;;;;;;;;31.38;55.19;95397.38;5114080;28;1039;-57
2023/07/14 08:35:48;;;;;;;;;;;;;;;31.49;57.18;95401.75;5113985;28;1985;-56
2023/07/14 08:38:14;;;;;;;;;;;;;;;31.47;55.92;95404.00;5117055;28;1008;-56
2023/07/14 08:40:44;;;;;;;;;;;;;;;31.41;54.39;95394.06;5117937;28;1163;-57
2023/07/14 08:43:11;;;;;;;;;;;;;;;31.25;51.97;95407.97;5116810;28;972;-57
2023/07/14 08:45:39;;;;;;;;;;;;;;;31.27;53.07;95397.47;5117807;28;1012;-56
2023/07/14 08:48:16;;;;;;;;;;;;;;;31.42;53.08;95395.72;5117994;28;1028;-56
2023/07/14 08:50:46;;;;;;;;;;;;;;;31.67;53.44;95392.78;5117823;28;1048;-56
2023/07/14 08:53:16;;;;;;;;;;;;;;;31.79;53.82;95397.91;5117710;28;1045;-57
2023/07/14 08:55:43;;;;;;;;;;;;;;;31.82;55.33;95385.47;5117728;28;1902;-56
2023/07/14 08:58:16;;;;;;;;;;;;;;;31.89;55.03;95389.56;5117561;28;1053;-57
2023/07/14 09:00:42;;;;;;;;;;;;;;;31.99;53.56;95396.94;5116625;28;1012;-57
2023/07/14 09:03:11;;;;;;;;;;;;;;;31.95;50.74;95383.94;5117683;28;1030;-57
2023/07/14 09:05:39;;;;;;;;;;;;;;;31.85;50.64;95380.19;5117585;28;977;-57
2023/07/14 09:08:08;;;;;;;;;;;;;;;32.03;52.80;95377.84;5117409;28;1060;-57
2023/07/14 09:10:55;;;;;;;;;;;;;;;32.07;49.87;95378.91;5117288;28;1057;-57
2023/07/14 09:13:34;;;;;;;;;;;;;;;32.05;51.32;95370.88;5117541;28;1016;-57
2023/07/14 09:16:01;;;;;;;;;;;;;;;31.98;50.12;95369.56;5117318;28;1909;-57
2023/07/14 09:18:39;;;;;;;;;;;;;;;31.98;51.41;95367.59;5117277;28;1141;-58
2023/07/14 09:21:08;;;;;;;;;;;;;;;32.06;52.54;95361.50;5117035;28;985;-57
2023/07/14 09:23:34;;;;;;;;;;;;;;;31.96;51.94;95361.56;5117222;28;960;-57
2023/07/14 09:26:24;;;;;;;;;;;;;;;31.94;50.81;95358.25;5116880;28;1548;-57
2023/07/14 09:28:51;;;;;;;;;;;;;;;32.07;53.44;95352.06;5116936;28;1041;-57
2023/07/14 09:31:39;;;;;;;;;;;;;;;32.11;52.29;95349.53;5116886;28;1087;-57
2023/07/14 09:34:12;;;;;;;;;;;;;;;32.02;52.28;95348.53;5117063;27;1047;-57
2023/07/14 09:36:39;;;;;;;;;;;;;;;32.06;52.77;95341.28;5116884;28;1910;-57
2023/07/14 09:39:10;;;;;;;;;;;;;;;32.22;51.92;95340.00;5116902;28;1269;-57
2023/07/14 09:41:36;;;;;;;;;;;;;;;32.28;48.19;95343.53;5116762;28;1028;-57
2023/07/14 09:44:02;;;;;;;;;;;;;;;32.37;48.22;95333.47;5116564;28;1056;-57
2023/07/14 09:46:36;;;;;;;;;;;;;;;32.37;47.84;95336.25;5116601;28;1044;-57
2023/07/14 09:49:04;;;;;;;;;;;;;;;32.44;45.98;95336.72;5116312;28;964;-57
2023/07/14 09:51:30;;;;;;;;;;;;;;;32.61;49.40;95321.56;5116615;28;1033;-57
2023/07/14 09:53:58;;;;;;;;;;;;;;;32.57;49.92;95321.34;5115337;28;1052;-57
2023/07/14 09:56:28;;;;;;;;;;;;;;;32.55;48.88;95325.50;5116352;28;1988;-56
2023/07/14 09:58:58;;;;;;;;;;;;;;;32.47;44.68;95321.47;5116354;28;1132;-57
2023/07/14 10:01:24;;;;;;;;;;;;;;;32.48;48.04;95318.41;5116553;28;1023;-57
2023/07/14 10:03:54;;;;;;;;;;;;;;;32.51;44.04;95313.38;5116445;28;956;-57
2023/07/14 10:06:24;;;;;;;;;;;;;;;32.53;44.16;95316.69;5116353;28;952;-57
2023/07/14 10:08:54;;;;;;;;;;;;;;;32.54;45.65;95307.28;5116231;28;977;-57
2023/07/14 10:11:23;;;;;;;;;;;;;;;32.60;46.64;95312.47;5116077;27;1065;-57
2023/07/14 10:13:52;;;;;;;;;;;;;;;32.77;43.65;95319.44;5116239;28;969;-57
2023/07/14 10:16:20;;;;;;;;;;;;;;;32.64;42.99;95316.28;5116221;28;1979;-57
2023/07/14 10:18:53;;;;;;;;;;;;;;;32.53;43.95;95298.13;5116184;28;976;-57
2023/07/14 10:21:24;;;;;;;;;;;;;;;32.70;42.76;95299.59;5116119;28;1053;-56
2023/07/14 10:24:04;;;;;;;;;;;;;;;32.82;44.44;95303.59;5115864;28;1045;-57
2023/07/14 10:26:35;;;;;;;;;;;;;;;32.79;43.88;95301.41;5113111;28;1104;-57
2023/07/14 10:29:03;;;;;;;;;;;;;;;32.76;44.66;95304.75;5116023;28;1004;-56
2023/07/14 10:31:34;;;;;;;;;;;;;;;32.75;43.98;95294.00;5115788;28;1079;-57
2023/07/14 10:34:19;;;;;;;;;;;;;;;32.60;38.72;95300.56;5115929;28;1054;-57
2023/07/14 10:36:46;;;;;;;;;;;;;;;32.67;43.66;95292.72;5115762;28;1971;-56
2023/07/14 10:39:21;;;;;;;;;;;;;;;32.63;41.74;95289.72;5115879;27;960;-58
2023/07/14 10:41:48;;;;;;;;;;;;;;;32.65;41.68;95292.19;5115758;28;969;-60
2023/07/14 10:44:34;;;;;;;;;;;;;;;32.65;42.55;95287.50;5115493;28;1049;-60
2023/07/14 10:47:12;;;;;;;;;;;;;;;32.74;42.62;95281.28;5115736;28;1029;-59
2023/07/14 10:49:47;;;;;;;;;;;;;;;32.71;43.27;95273.56;5115328;28;1049;-60
2023/07/14 10:52:19;;;;;;;;;;;;;;;32.90;43.64;95277.16;5115401;28;1131;-59
2023/07/14 10:55:03;;;;;;;;;;;;;;;33.14;40.48;95288.16;5114233;28;976;-58
2023/07/14 10:57:29;;;;;;;;;;;;;;;33.31;42.18;95275.72;5115577;28;992;-56
2023/07/14 10:59:58;;;;;;;;;;;;;;;33.31;40.15;95282.06;5114318;28;1104;-56
2023/07/14 11:02:30;;;;;;;;;;;;;;;33.44;40.46;95280.47;5115295;28;1031;-56
2023/07/14 11:05:03;;;;;;;;;;;;;;;33.47;39.28;95277.09;5115151;28;985;-56
2023/07/14 11:07:31;;;;;;;;;;;;;;;33.45;36.76;95290.44;5113833;28;1045;-56
2023/07/14 11:09:58;;;;;;;;;;;;;;;33.39;39.23;95277.78;5113518;28;1008;-57
2023/07/14 11:12:32;;;;;;;;;;;;;;;33.38;41.13;95267.84;5114674;28;1122;-57
2023/07/14 11:15:02;;;;;;;;;;;;;;;33.39;36.73;95278.63;5113650;28;1906;-57
2023/07/14 11:17:34;;;;;;;;;;;;;;;33.48;39.78;95275.97;5114267;28;993;-57
2023/07/14 11:20:15;;;;;;;;;;;;;;;33.56;40.26;95266.97;5114770;28;1072;-57
2023/07/14 11:22:42;;;;;;;;;;;;;;;33.49;39.57;95268.50;5115110;27;1000;-56
2023/07/14 11:25:21;;;;;;;;;;;;;;;33.40;37.92;95268.34;5114364;28;1915;-57
2023/07/14 11:27:53;;;;;;;;;;;;;;;33.43;35.88;95276.06;5114890;28;936;-57
2023/07/14 11:30:24;;;;;;;;;;;;;;;33.35;36.30;95271.19;5114748;28;1048;-57
2023/07/14 11:33:05;;;;;;;;;;;;;;;33.40;36.58;95268.34;5114604;28;1115;-57
2023/07/14 11:35:36;;;;;;;;;;;;;;;33.40;38.74;95255.31;5114675;28;1993;-56
2023/07/14 11:38:02;;;;;;;;;;;;;;;33.36;36.85;95265.38;5114515;28;1288;-56
2023/07/14 11:40:33;;;;;;;;;;;;;;;33.25;36.92;95263.91;5114584;28;965;-56
2023/07/14 11:43:00;;;;;;;;;;;;;;;33.26;37.06;95263.59;5114493;28;1584;-57
2023/07/14 11:45:29;;;;;;;;;;;;;;;33.34;35.29;95258.50;5114359;27;1116;-56
2023/07/14 11:47:56;;;;;;;;;;;;;;;33.45;37.39;95254.41;5114558;28;1015;-56
2023/07/14 11:50:24;;;;;;;;;;;;;;;33.58;39.38;95244.47;5114322;28;1087;-56
2023/07/14 11:53:05;;;;;;;;;;;;;;;33.58;38.11;95248.09;5114402;28;964;-56
2023/07/14 11:55:32;;;;;;;;;;;;;;;33.58;37.50;95253.63;5114172;28;1910;-57
2023/07/14 11:58:02;;;;;;;;;;;;;;;33.56;40.03;95243.94;5114093;28;1011;-56
2023/07/14 12:00:36;;;;;;;;;;;;;;;33.56;39.77;95244.78;5114211;28;1138;-57
2023/07/14 12:03:03;;;;;;;;;;;;;;;33.46;38.76;95240.22;5114167;28;900;-56
2023/07/14 12:05:32;;;;;;;;;;;;;;;33.42;39.52;95235.63;5114163;28;1067;-57
2023/07/14 12:08:03;;;;;;;;;;;;;;;33.36;40.41;95234.06;5114140;28;1119;-57
2023/07/14 12:10:39;;;;;;;;;;;;;;;33.43;42.69;95234.50;5113802;28;1008;-57
2023/07/14 12:13:27;;;;;;;;;;;;;;;33.48;38.14;95241.91;5113947;28;1090;-57
2023/07/14 12:15:56;;;;;;;;;;;;;;;33.62;38.90;95240.78;5114030;28;1929;-57
2023/07/14 12:18:22;;;;;;;;;;;;;;;33.70;41.75;95230.16;5114017;28;1051;-56
2023/07/14 12:20:48;;;;;;;;;;;;;;;33.76;39.64;95231.69;5112798;28;1039;-56
2023/07/14 12:23:14;;;;;;;;;;;;;;;33.80;40.22;95227.19;5114180;28;1040;-56
2023/07/14 12:25:42;;;;;;;;;;;;;;;33.84;41.23;95230.97;5113705;28;1231;-56
2023/07/14 12:28:14;;;;;;;;;;;;;;;33.92;42.08;95223.88;5113838;28;1048;-56
2023/07/14 12:30:45;;;;;;;;;;;;;;;33.90;43.13;95215.06;5113891;28;1105;-56
2023/07/14 12:33:13;;;;;;;;;;;;;;;33.73;43.33;95208.19;5113893;28;973;-57
2023/07/14 12:35:39;;;;;;;;;;;;;;;33.82;41.39;95219.38;5113683;28;1983;-56
2023/07/14 12:38:09;;;;;;;;;;;;;;;33.85;41.98;95210.44;5112769;28;949;-56
2023/07/14 12:40:36;;;;;;;;;;;;;;;33.92;43.86;95210.03;5113692;28;1045;-57
2023/07/14 12:43:04;;;;;;;;;;;;;;;33.88;45.20;95197.91;5113833;28;1011;-57
2023/07/14 12:45:30;;;;;;;;;;;;;;;33.88;44.87;95195.13;5113743;28;1076;-57
2023/07/14 12:48:00;;;;;;;;;;;;;;;33.82;43.39;95198.00;5113551;28;946;-57
2023/07/14 12:50:27;;;;;;;;;;;;;;;33.90;44.74;95204.78;5113665;28;1106;-57
2023/07/14 12:52:53;;;;;;;;;;;;;;;33.84;44.67;95198.50;5113615;28;1056;-57
2023/07/14 12:55:26;;;;;;;;;;;;;;;33.80;44.21;95189.19;5113774;28;1996;-57
2023/07/14 12:57:52;;;;;;;;;;;;;;;33.74;42.76;95192.38;5113631;28;1029;-57
2023/07/14 13:00:19;;;;;;;;;;;;;;;33.82;41.87;95199.97;5113660;28;1035;-57
2023/07/14 13:02:46;;;;;;;;;;;;;;;33.95;42.28;95190.00;5113485;28;1036;-57
2023/07/14 13:05:13;;;;;;;;;;;;;;;33.94;42.06;95189.19;5113758;28;1091;-58
2023/07/14 13:07:42;;;;;;;;;;;;;;;33.93;43.01;95183.94;5113443;28;1115;-57
2023/07/14 13:10:28;;;;;;;;;;;;;;;33.93;42.74;95182.00;5113572;28;1046;-57
2023/07/14 13:12:55;;;;;;;;;;;;;;;33.75;43.13;95175.44;5113317;28;1097;-56
2023/07/14 13:15:24;;;;;;;;;;;;;;;33.71;40.78;95179.94;5113258;28;1902;-57
2023/07/14 13:17:51;;;;;;;;;;;;;;;33.75;39.74;95175.44;5113643;28;1011;-57